Nabolsi 1 — HP3264 — position and weather

sailwx.info

Track history (hours):
 
Tides and Currents Weather Stations Pressure Air Temp Water Temp Dewpoint Dewpoint Depression Visibility Wind Speed Wind Dir Waves Ship Positions

Nabolsi 1

Last reported at 2018-Feb-16 20:58 UTC. Time now 2018-Feb-18 07:18 UTC.
Position N 40°60' E 001°35'.

Length 75 m; draft 3.7 m.

Type: Cargo ship. MMSI: 357933000.

Date/timePositionNaut miles runAvg speedWind from/ knotsBaromVisibWave heightAir tempDewpointWater temp
2018-Feb-16 20:58N 40°60' E 001°35'13 9.6
2018-Feb-16 19:34N 40°53' E 001°51'2 9.5
2018-Feb-16 19:19N 40°52' E 001°54'350 8.9
2018-Feb-15 04:08N 39°02' E 009°07'1 9.5
2018-Feb-15 04:00N 39°03' E 009°07'4 7.7
2018-Feb-15 03:30N 39°07' E 009°09'1 1.0
2018-Feb-15 02:59N 39°07' E 009°09'0 0.0
2018-Feb-15 02:29N 39°07' E 009°09'0 0.0
2018-Feb-15 01:59N 39°07' E 009°09'0 0.0
2018-Feb-15 01:29N 39°07' E 009°09'0 0.0
2018-Feb-15 00:59N 39°07' E 009°09'0 0.0
2018-Feb-15 00:29N 39°07' E 009°09'0 0.0
2018-Feb-14 23:59N 39°07' E 009°09'0 0.0
2018-Feb-14 23:29N 39°07' E 009°09'0 0.0
2018-Feb-14 22:59N 39°07' E 009°09'0 0.0
2018-Feb-14 22:29N 39°07' E 009°09'0 0.0
2018-Feb-14 21:59N 39°07' E 009°09'0 0.0
2018-Feb-14 21:29N 39°07' E 009°09'0 0.0
2018-Feb-14 20:56N 39°07' E 009°09'0 0.0
2018-Feb-14 20:29N 39°07' E 009°09'0 0.0
2018-Feb-14 19:59N 39°07' E 009°09'0 0.0
2018-Feb-14 19:29N 39°07' E 009°09'0 0.0
2018-Feb-14 18:59N 39°07' E 009°09'0 0.1
2018-Feb-14 18:29N 39°07' E 009°09'0 0.1
2018-Feb-14 17:59N 39°07' E 009°09'0 0.1
2018-Feb-14 17:29N 39°07' E 009°09'0 0.0
2018-Feb-14 16:59N 39°07' E 009°09'0 0.1
2018-Feb-14 16:29N 39°07' E 009°09'0 0.0
2018-Feb-14 15:59N 39°07' E 009°09'0 0.1
2018-Feb-14 15:29N 39°07' E 009°09'0 0.0
2018-Feb-14 14:59N 39°07' E 009°09'0 0.1
2018-Feb-14 14:29N 39°07' E 009°09'0 0.1
2018-Feb-14 13:59N 39°07' E 009°09'0 0.2
2018-Feb-14 13:29N 39°07' E 009°09'0 0.1
2018-Feb-14 12:59N 39°07' E 009°09'0 0.0
2018-Feb-14 12:29N 39°07' E 009°09'0 0.0
2018-Feb-14 11:59N 39°07' E 009°09'0 0.1
2018-Feb-14 11:29N 39°07' E 009°09'0 0.0
2018-Feb-14 10:59N 39°07' E 009°09'0 0.1
2018-Feb-14 10:29N 39°07' E 009°09'0 0.1
2018-Feb-14 09:59N 39°07' E 009°09'0 0.0
2018-Feb-14 09:29N 39°07' E 009°09'0 0.0
2018-Feb-14 08:59N 39°07' E 009°09'0 0.1
2018-Feb-14 08:26N 39°07' E 009°09'0 0.1
2018-Feb-14 07:59N 39°07' E 009°09'0 0.0
2018-Feb-14 07:29N 39°07' E 009°09'0 0.0
2018-Feb-14 06:59N 39°07' E 009°09'0 0.0
2018-Feb-14 06:29N 39°07' E 009°09'0 0.0
2018-Feb-14 05:58N 39°07' E 009°09'0 0.1
2018-Feb-14 05:28N 39°07' E 009°09'0 0.2
2018-Feb-14 04:58N 39°07' E 009°09'0 0.2
2018-Feb-14 04:28N 39°07' E 009°09'0 0.1
2018-Feb-14 03:58N 39°07' E 009°09'0 0.1
2018-Feb-14 03:28N 39°07' E 009°09'0 0.2
2018-Feb-14 02:58N 39°07' E 009°09'0 0.0
2018-Feb-14 02:28N 39°07' E 009°09'0 0.0
2018-Feb-14 01:58N 39°07' E 009°09'0 0.0
2018-Feb-14 01:28N 39°07' E 009°09'0 0.0
2018-Feb-14 00:58N 39°07' E 009°09'0 0.1
2018-Feb-14 00:28N 39°07' E 009°09'0 0.1
2018-Feb-13 23:58N 39°07' E 009°09'0 0.0
2018-Feb-13 23:28N 39°07' E 009°09'0 0.1
2018-Feb-13 22:58N 39°07' E 009°09'0 0.1
2018-Feb-13 22:28N 39°07' E 009°09'0 0.0
2018-Feb-13 21:58N 39°07' E 009°09'0 0.0
2018-Feb-13 21:28N 39°07' E 009°09'0 0.0
2018-Feb-13 20:58N 39°07' E 009°09'0 0.0
2018-Feb-13 20:28N 39°07' E 009°09'0 0.0
2018-Feb-13 19:58N 39°07' E 009°09'0 0.0
2018-Feb-13 19:28N 39°07' E 009°09'0 0.1
2018-Feb-13 18:58N 39°07' E 009°09'0 0.0
2018-Feb-13 18:28N 39°07' E 009°09'0 0.1
2018-Feb-13 17:58N 39°07' E 009°09'0 0.1
2018-Feb-13 17:28N 39°07' E 009°09'0 0.0
2018-Feb-13 16:58N 39°07' E 009°09'0 0.0
2018-Feb-13 16:28N 39°07' E 009°09'0 0.0
2018-Feb-13 15:58N 39°07' E 009°09'0 0.1
2018-Feb-13 15:25N 39°07' E 009°09'0 0.0
2018-Feb-13 14:58N 39°07' E 009°09'0 0.0
2018-Feb-13 14:28N 39°07' E 009°09'0 0.1
2018-Feb-13 13:58N 39°07' E 009°09'0 0.1
2018-Feb-13 13:28N 39°07' E 009°09'0 0.1
2018-Feb-13 12:58N 39°07' E 009°09'0 0.0
2018-Feb-13 12:28N 39°07' E 009°09'0 0.1
2018-Feb-13 11:58N 39°07' E 009°09'0 0.1
2018-Feb-13 11:28N 39°07' E 009°09'0 0.1
2018-Feb-13 10:58N 39°07' E 009°09'0 0.1
2018-Feb-13 10:28N 39°07' E 009°09'0 0.1
2018-Feb-13 09:58N 39°07' E 009°09'0 0.1
2018-Feb-13 09:28N 39°07' E 009°09'0 0.1
2018-Feb-13 08:58N 39°07' E 009°09'0 0.1
2018-Feb-13 08:28N 39°07' E 009°09'0 0.0
2018-Feb-13 07:58N 39°07' E 009°09'0 0.0
2018-Feb-13 07:28N 39°07' E 009°09'0 0.0
2018-Feb-13 06:58N 39°07' E 009°09'0 0.0
2018-Feb-13 06:28N 39°07' E 009°09'0 0.0
2018-Feb-13 05:58N 39°07' E 009°09'0 0.0
2018-Feb-13 05:28N 39°07' E 009°09'0 0.1
2018-Feb-13 04:58N 39°07' E 009°09'0 0.0
2018-Feb-13 04:28N 39°07' E 009°09'0 0.0
2018-Feb-13 03:58N 39°07' E 009°09'0 0.0
2018-Feb-13 03:28N 39°07' E 009°09'0 0.0
2018-Feb-13 02:58N 39°07' E 009°09'0 0.0
2018-Feb-13 02:28N 39°07' E 009°09'0 0.0
2018-Feb-13 01:58N 39°07' E 009°09'0 0.1
2018-Feb-13 01:28N 39°07' E 009°09'0 0.0
2018-Feb-13 00:58N 39°07' E 009°09'0 0.0
2018-Feb-13 00:28N 39°07' E 009°09'0 0.0
2018-Feb-12 23:58N 39°07' E 009°09'0 0.0
2018-Feb-12 23:28N 39°07' E 009°09'0 0.0
2018-Feb-12 22:55N 39°07' E 009°09'0 0.0
2018-Feb-12 22:28N 39°07' E 009°09'0 0.0
2018-Feb-12 21:55N 39°07' E 009°09'0 0.0
2018-Feb-12 21:28N 39°07' E 009°09'0 0.1
2018-Feb-12 20:58N 39°07' E 009°09'0 0.1
2018-Feb-12 20:31N 39°07' E 009°09'0 0.1
2018-Feb-12 20:01N 39°07' E 009°09'0 0.0
2018-Feb-12 19:31N 39°07' E 009°09'0 0.1
2018-Feb-12 19:00N 39°07' E 009°09'0 0.1
2018-Feb-12 18:30N 39°07' E 009°09'0 0.1
2018-Feb-12 18:00N 39°07' E 009°09'0 0.0
2018-Feb-12 17:30N 39°07' E 009°09'0 0.0
2018-Feb-12 17:00N 39°07' E 009°09'0 0.1
2018-Feb-12 16:30N 39°07' E 009°09'0 0.0
2018-Feb-12 16:00N 39°07' E 009°09'0 0.0
2018-Feb-12 15:15N 39°07' E 009°09'0 0.0
2018-Feb-12 15:00N 39°07' E 009°09'0 0.0
2018-Feb-12 14:30N 39°07' E 009°09'0 0.0
2018-Feb-12 14:00N 39°07' E 009°09'0 0.0
2018-Feb-12 13:30N 39°07' E 009°09'0 0.0
2018-Feb-12 13:00N 39°07' E 009°09'0 0.0
2018-Feb-12 12:30N 39°07' E 009°09'0 0.1
2018-Feb-12 12:00N 39°07' E 009°09'0 0.1
2018-Feb-12 11:30N 39°07' E 009°09'0 0.1
2018-Feb-12 11:00N 39°07' E 009°09'0 0.1
2018-Feb-12 10:30N 39°07' E 009°09'0 0.0
2018-Feb-12 10:00N 39°07' E 009°09'0 0.0
2018-Feb-12 09:30N 39°07' E 009°09'0 0.1
2018-Feb-12 09:00N 39°07' E 009°09'0 0.0
2018-Feb-12 08:30N 39°07' E 009°09'0 0.0
2018-Feb-12 08:00N 39°07' E 009°09'0 0.0
2018-Feb-12 07:30N 39°07' E 009°09'0 0.0
2018-Feb-12 07:00N 39°07' E 009°09'0 0.0
2018-Feb-12 06:30N 39°07' E 009°09'0 0.1
2018-Feb-12 06:00N 39°07' E 009°09'0 0.1
2018-Feb-12 05:30N 39°07' E 009°09'0 0.0
2018-Feb-12 05:00N 39°07' E 009°09'0 0.0
2018-Feb-12 04:30N 39°07' E 009°09'0 0.1
2018-Feb-12 04:00N 39°07' E 009°09'0 0.1
2018-Feb-12 03:30N 39°07' E 009°09'0 0.0
2018-Feb-12 03:00N 39°07' E 009°09'0 0.0
2018-Feb-12 02:30N 39°07' E 009°09'0 0.0
2018-Feb-12 02:00N 39°07' E 009°09'0 0.0
2018-Feb-12 01:30N 39°07' E 009°09'0 0.1
2018-Feb-12 01:00N 39°07' E 009°09'0 0.0
2018-Feb-12 00:30N 39°07' E 009°09'0 0.1
2018-Feb-12 00:00N 39°07' E 009°09'0 0.0
2018-Feb-11 23:30N 39°07' E 009°09'0 0.0
2018-Feb-11 23:00N 39°07' E 009°09'0 0.0
2018-Feb-11 22:30N 39°07' E 009°09'0 0.1
2018-Feb-11 22:00N 39°07' E 009°09'0 0.0
2018-Feb-11 21:30N 39°07' E 009°09'0 0.0
2018-Feb-11 21:00N 39°07' E 009°09'0 0.0
2018-Feb-11 20:30N 39°07' E 009°09'0 0.0
2018-Feb-11 20:00N 39°07' E 009°09'0 0.0
2018-Feb-11 19:30N 39°07' E 009°09'0 0.1
2018-Feb-11 19:00N 39°07' E 009°09'0 0.1
2018-Feb-11 18:30N 39°07' E 009°09'0 0.1
2018-Feb-11 18:00N 39°07' E 009°09'0 0.1
2018-Feb-11 17:30N 39°07' E 009°09'0 0.0
2018-Feb-11 17:00N 39°07' E 009°09'0 0.0
2018-Feb-11 16:30N 39°07' E 009°09'0 0.1
2018-Feb-11 16:00N 39°07' E 009°09'0 0.0
2018-Feb-11 15:30N 39°07' E 009°09'0 0.0
2018-Feb-11 15:00N 39°07' E 009°09'0 0.0
2018-Feb-11 14:30N 39°07' E 009°09'0 0.1
2018-Feb-11 14:00N 39°07' E 009°09'0 0.0
2018-Feb-11 13:30N 39°07' E 009°09'0 0.0
2018-Feb-11 13:00N 39°07' E 009°09'0 0.0
2018-Feb-11 12:30N 39°07' E 009°09'0 0.1
2018-Feb-11 12:00N 39°07' E 009°09'0 0.0
2018-Feb-11 11:30N 39°07' E 009°09'0 0.0
2018-Feb-11 11:00N 39°07' E 009°09'0 0.0
2018-Feb-11 10:30N 39°07' E 009°09'0 0.0
2018-Feb-11 10:00N 39°07' E 009°09'0 0.0
2018-Feb-11 09:30N 39°07' E 009°09'0 0.0
2018-Feb-11 09:00N 39°07' E 009°09'0 0.0
2018-Feb-11 08:29N 39°07' E 009°09'0 0.0
2018-Feb-11 07:59N 39°07' E 009°09'0 0.1
2018-Feb-11 07:29N 39°07' E 009°09'0 0.1
2018-Feb-11 06:59N 39°07' E 009°09'0 0.0
2018-Feb-11 06:29N 39°07' E 009°09'0 0.1
2018-Feb-11 05:59N 39°07' E 009°09'0 0.0
2018-Feb-11 05:29N 39°07' E 009°09'0 0.0
2018-Feb-11 04:59N 39°07' E 009°09'0 0.0
2018-Feb-11 04:29N 39°07' E 009°09'0 0.0
2018-Feb-11 03:59N 39°07' E 009°09'0 0.0
2018-Feb-11 03:29N 39°07' E 009°09'0 0.0
2018-Feb-11 02:59N 39°07' E 009°09'0 0.1
2018-Feb-11 02:29N 39°07' E 009°09'0 0.0
2018-Feb-11 01:59N 39°07' E 009°09'0 0.0
2018-Feb-11 01:29N 39°07' E 009°09'0 0.0
2018-Feb-11 00:59N 39°07' E 009°09'0 0.0
2018-Feb-11 00:29N 39°07' E 009°09'0 0.0
2018-Feb-10 23:59N 39°07' E 009°09'0 0.0
2018-Feb-10 23:29N 39°07' E 009°09'0 0.0
2018-Feb-10 22:59N 39°07' E 009°09'0 0.0
2018-Feb-10 22:29N 39°07' E 009°09'0 0.0
2018-Feb-10 21:59N 39°07' E 009°09'0 0.0
2018-Feb-10 21:29N 39°07' E 009°09'0 0.0
2018-Feb-10 20:59N 39°07' E 009°09'0 0.0
2018-Feb-10 20:29N 39°07' E 009°09'0 0.0
2018-Feb-10 19:59N 39°07' E 009°09'0 0.0
2018-Feb-10 19:29N 39°07' E 009°09'0 0.1
2018-Feb-10 18:59N 39°07' E 009°09'0 0.1
2018-Feb-10 18:29N 39°07' E 009°09'0 0.0
2018-Feb-10 17:59N 39°07' E 009°09'0 0.1
2018-Feb-10 17:29N 39°07' E 009°09'0 0.0
2018-Feb-10 16:59N 39°07' E 009°09'0 0.1
2018-Feb-10 16:29N 39°07' E 009°09'0 0.0
2018-Feb-10 15:59N 39°07' E 009°09'0 0.1
2018-Feb-10 15:29N 39°07' E 009°09'0 0.1
2018-Feb-10 14:59N 39°07' E 009°09'0 0.0
2018-Feb-10 14:29N 39°07' E 009°09'0 0.0
2018-Feb-10 13:59N 39°07' E 009°09'0 0.1
2018-Feb-10 13:29N 39°07' E 009°09'0 0.1
2018-Feb-10 12:59N 39°07' E 009°09'0 0.0
2018-Feb-10 12:29N 39°07' E 009°09'0 0.0
2018-Feb-10 11:59N 39°07' E 009°09'0 0.0
2018-Feb-10 11:29N 39°07' E 009°09'0 0.0
2018-Feb-10 10:59N 39°07' E 009°09'0 0.1
2018-Feb-10 10:29N 39°07' E 009°09'0 0.1
2018-Feb-10 09:59N 39°07' E 009°09'0 0.1
2018-Feb-10 09:28N 39°07' E 009°09'0 0.1
2018-Feb-10 08:59N 39°07' E 009°09'1 1.5
2018-Feb-10 08:29N 39°08' E 009°08'2 5.0
2018-Feb-10 08:00N 39°07' E 009°11'4 8.7
2018-Feb-10 07:30N 39°04' E 009°16'5 9.3
2018-Feb-10 07:00N 39°02' E 009°21'4 8.7
2018-Feb-10 06:29N 38°60' E 009°26'180 9.7
2018-Feb-09 12:00N 38°28' E 013°13'114 3.7
2018-Feb-08 05:00N 38°12' E 015°37'14 9.0
2018-Feb-08 03:30N 37°59' E 015°34'9 8.9
2018-Feb-08 02:30N 37°51' E 015°28'9 8.9
2018-Feb-08 01:29N 37°43' E 015°23'6 9.5
2018-Feb-08 00:53N 37°37' E 015°23'  
Track history (hours):
 
Tides and Currents Weather Stations Pressure Air Temp Water Temp Dewpoint Dewpoint Depression Visibility Wind Speed Wind Dir Waves Ship Positions

Nabolsi 1

Last reported at 2018-Feb-16 20:58 UTC. Time now 2018-Feb-18 07:18 UTC.
Position N 40°60' E 001°35'.

Length 75 m; draft 3.7 m.

Type: Cargo ship. MMSI: 357933000.

Date/timePositionNaut miles runAvg speedWind from/ knotsBaromVisibWave heightAir tempDewpointWater temp
2018-Feb-16 20:58N 40°60' E 001°35'13 9.6
2018-Feb-16 19:34N 40°53' E 001°51'2 9.5
2018-Feb-16 19:19N 40°52' E 001°54'350 8.9
2018-Feb-15 04:08N 39°02' E 009°07'1 9.5
2018-Feb-15 04:00N 39°03' E 009°07'4 7.7
2018-Feb-15 03:30N 39°07' E 009°09'1 1.0
2018-Feb-15 02:59N 39°07' E 009°09'0 0.0
2018-Feb-15 02:29N 39°07' E 009°09'0 0.0
2018-Feb-15 01:59N 39°07' E 009°09'0 0.0
2018-Feb-15 01:29N 39°07' E 009°09'0 0.0
2018-Feb-15 00:59N 39°07' E 009°09'0 0.0
2018-Feb-15 00:29N 39°07' E 009°09'0 0.0
2018-Feb-14 23:59N 39°07' E 009°09'0 0.0
2018-Feb-14 23:29N 39°07' E 009°09'0 0.0
2018-Feb-14 22:59N 39°07' E 009°09'0 0.0
2018-Feb-14 22:29N 39°07' E 009°09'0 0.0
2018-Feb-14 21:59N 39°07' E 009°09'0 0.0
2018-Feb-14 21:29N 39°07' E 009°09'0 0.0
2018-Feb-14 20:56N 39°07' E 009°09'0 0.0
2018-Feb-14 20:29N 39°07' E 009°09'0 0.0
2018-Feb-14 19:59N 39°07' E 009°09'0 0.0
2018-Feb-14 19:29N 39°07' E 009°09'0 0.0
2018-Feb-14 18:59N 39°07' E 009°09'0 0.1
2018-Feb-14 18:29N 39°07' E 009°09'0 0.1
2018-Feb-14 17:59N 39°07' E 009°09'0 0.1
2018-Feb-14 17:29N 39°07' E 009°09'0 0.0
2018-Feb-14 16:59N 39°07' E 009°09'0 0.1
2018-Feb-14 16:29N 39°07' E 009°09'0 0.0
2018-Feb-14 15:59N 39°07' E 009°09'0 0.1
2018-Feb-14 15:29N 39°07' E 009°09'0 0.0
2018-Feb-14 14:59N 39°07' E 009°09'0 0.1
2018-Feb-14 14:29N 39°07' E 009°09'0 0.1
2018-Feb-14 13:59N 39°07' E 009°09'0 0.2
2018-Feb-14 13:29N 39°07' E 009°09'0 0.1
2018-Feb-14 12:59N 39°07' E 009°09'0 0.0
2018-Feb-14 12:29N 39°07' E 009°09'0 0.0
2018-Feb-14 11:59N 39°07' E 009°09'0 0.1
2018-Feb-14 11:29N 39°07' E 009°09'0 0.0
2018-Feb-14 10:59N 39°07' E 009°09'0 0.1
2018-Feb-14 10:29N 39°07' E 009°09'0 0.1
2018-Feb-14 09:59N 39°07' E 009°09'0 0.0
2018-Feb-14 09:29N 39°07' E 009°09'0 0.0
2018-Feb-14 08:59N 39°07' E 009°09'0 0.1
2018-Feb-14 08:26N 39°07' E 009°09'0 0.1
2018-Feb-14 07:59N 39°07' E 009°09'0 0.0
2018-Feb-14 07:29N 39°07' E 009°09'0 0.0
2018-Feb-14 06:59N 39°07' E 009°09'0 0.0
2018-Feb-14 06:29N 39°07' E 009°09'0 0.0
2018-Feb-14 05:58N 39°07' E 009°09'0 0.1
2018-Feb-14 05:28N 39°07' E 009°09'0 0.2
2018-Feb-14 04:58N 39°07' E 009°09'0 0.2
2018-Feb-14 04:28N 39°07' E 009°09'0 0.1
2018-Feb-14 03:58N 39°07' E 009°09'0 0.1
2018-Feb-14 03:28N 39°07' E 009°09'0 0.2
2018-Feb-14 02:58N 39°07' E 009°09'0 0.0
2018-Feb-14 02:28N 39°07' E 009°09'0 0.0
2018-Feb-14 01:58N 39°07' E 009°09'0 0.0
2018-Feb-14 01:28N 39°07' E 009°09'0 0.0
2018-Feb-14 00:58N 39°07' E 009°09'0 0.1
2018-Feb-14 00:28N 39°07' E 009°09'0 0.1
2018-Feb-13 23:58N 39°07' E 009°09'0 0.0
2018-Feb-13 23:28N 39°07' E 009°09'0 0.1
2018-Feb-13 22:58N 39°07' E 009°09'0 0.1
2018-Feb-13 22:28N 39°07' E 009°09'0 0.0
2018-Feb-13 21:58N 39°07' E 009°09'0 0.0
2018-Feb-13 21:28N 39°07' E 009°09'0 0.0
2018-Feb-13 20:58N 39°07' E 009°09'0 0.0
2018-Feb-13 20:28N 39°07' E 009°09'0 0.0
2018-Feb-13 19:58N 39°07' E 009°09'0 0.0
2018-Feb-13 19:28N 39°07' E 009°09'0 0.1
2018-Feb-13 18:58N 39°07' E 009°09'0 0.0
2018-Feb-13 18:28N 39°07' E 009°09'0 0.1
2018-Feb-13 17:58N 39°07' E 009°09'0 0.1
2018-Feb-13 17:28N 39°07' E 009°09'0 0.0
2018-Feb-13 16:58N 39°07' E 009°09'0 0.0
2018-Feb-13 16:28N 39°07' E 009°09'0 0.0
2018-Feb-13 15:58N 39°07' E 009°09'0 0.1
2018-Feb-13 15:25N 39°07' E 009°09'0 0.0
2018-Feb-13 14:58N 39°07' E 009°09'0 0.0
2018-Feb-13 14:28N 39°07' E 009°09'0 0.1
2018-Feb-13 13:58N 39°07' E 009°09'0 0.1
2018-Feb-13 13:28N 39°07' E 009°09'0 0.1
2018-Feb-13 12:58N 39°07' E 009°09'0 0.0
2018-Feb-13 12:28N 39°07' E 009°09'0 0.1
2018-Feb-13 11:58N 39°07' E 009°09'0 0.1
2018-Feb-13 11:28N 39°07' E 009°09'0 0.1
2018-Feb-13 10:58N 39°07' E 009°09'0 0.1
2018-Feb-13 10:28N 39°07' E 009°09'0 0.1
2018-Feb-13 09:58N 39°07' E 009°09'0 0.1
2018-Feb-13 09:28N 39°07' E 009°09'0 0.1
2018-Feb-13 08:58N 39°07' E 009°09'0 0.1
2018-Feb-13 08:28N 39°07' E 009°09'0 0.0
2018-Feb-13 07:58N 39°07' E 009°09'0 0.0
2018-Feb-13 07:28N 39°07' E 009°09'0 0.0
2018-Feb-13 06:58N 39°07' E 009°09'0 0.0
2018-Feb-13 06:28N 39°07' E 009°09'0 0.0
2018-Feb-13 05:58N 39°07' E 009°09'0 0.0
2018-Feb-13 05:28N 39°07' E 009°09'0 0.1
2018-Feb-13 04:58N 39°07' E 009°09'0 0.0
2018-Feb-13 04:28N 39°07' E 009°09'0 0.0
2018-Feb-13 03:58N 39°07' E 009°09'0 0.0
2018-Feb-13 03:28N 39°07' E 009°09'0 0.0
2018-Feb-13 02:58N 39°07' E 009°09'0 0.0
2018-Feb-13 02:28N 39°07' E 009°09'0 0.0
2018-Feb-13 01:58N 39°07' E 009°09'0 0.1
2018-Feb-13 01:28N 39°07' E 009°09'0 0.0
2018-Feb-13 00:58N 39°07' E 009°09'0 0.0
2018-Feb-13 00:28N 39°07' E 009°09'0 0.0
2018-Feb-12 23:58N 39°07' E 009°09'0 0.0
2018-Feb-12 23:28N 39°07' E 009°09'0 0.0
2018-Feb-12 22:55N 39°07' E 009°09'0 0.0
2018-Feb-12 22:28N 39°07' E 009°09'0 0.0
2018-Feb-12 21:55N 39°07' E 009°09'0 0.0
2018-Feb-12 21:28N 39°07' E 009°09'0 0.1
2018-Feb-12 20:58N 39°07' E 009°09'0 0.1
2018-Feb-12 20:31N 39°07' E 009°09'0 0.1
2018-Feb-12 20:01N 39°07' E 009°09'0 0.0
2018-Feb-12 19:31N 39°07' E 009°09'0 0.1
2018-Feb-12 19:00N 39°07' E 009°09'0 0.1
2018-Feb-12 18:30N 39°07' E 009°09'0 0.1
2018-Feb-12 18:00N 39°07' E 009°09'0 0.0
2018-Feb-12 17:30N 39°07' E 009°09'0 0.0
2018-Feb-12 17:00N 39°07' E 009°09'0 0.1
2018-Feb-12 16:30N 39°07' E 009°09'0 0.0
2018-Feb-12 16:00N 39°07' E 009°09'0 0.0
2018-Feb-12 15:15N 39°07' E 009°09'0 0.0
2018-Feb-12 15:00N 39°07' E 009°09'0 0.0
2018-Feb-12 14:30N 39°07' E 009°09'0 0.0
2018-Feb-12 14:00N 39°07' E 009°09'0 0.0
2018-Feb-12 13:30N 39°07' E 009°09'0 0.0
2018-Feb-12 13:00N 39°07' E 009°09'0 0.0
2018-Feb-12 12:30N 39°07' E 009°09'0 0.1
2018-Feb-12 12:00N 39°07' E 009°09'0 0.1
2018-Feb-12 11:30N 39°07' E 009°09'0 0.1
2018-Feb-12 11:00N 39°07' E 009°09'0 0.1
2018-Feb-12 10:30N 39°07' E 009°09'0 0.0
2018-Feb-12 10:00N 39°07' E 009°09'0 0.0
2018-Feb-12 09:30N 39°07' E 009°09'0 0.1
2018-Feb-12 09:00N 39°07' E 009°09'0 0.0
2018-Feb-12 08:30N 39°07' E 009°09'0 0.0
2018-Feb-12 08:00N 39°07' E 009°09'0 0.0
2018-Feb-12 07:30N 39°07' E 009°09'0 0.0
2018-Feb-12 07:00N 39°07' E 009°09'0 0.0
2018-Feb-12 06:30N 39°07' E 009°09'0 0.1
2018-Feb-12 06:00N 39°07' E 009°09'0 0.1
2018-Feb-12 05:30N 39°07' E 009°09'0 0.0
2018-Feb-12 05:00N 39°07' E 009°09'0 0.0
2018-Feb-12 04:30N 39°07' E 009°09'0 0.1
2018-Feb-12 04:00N 39°07' E 009°09'0 0.1
2018-Feb-12 03:30N 39°07' E 009°09'0 0.0
2018-Feb-12 03:00N 39°07' E 009°09'0 0.0
2018-Feb-12 02:30N 39°07' E 009°09'0 0.0
2018-Feb-12 02:00N 39°07' E 009°09'0 0.0
2018-Feb-12 01:30N 39°07' E 009°09'0 0.1
2018-Feb-12 01:00N 39°07' E 009°09'0 0.0
2018-Feb-12 00:30N 39°07' E 009°09'0 0.1
2018-Feb-12 00:00N 39°07' E 009°09'0 0.0
2018-Feb-11 23:30N 39°07' E 009°09'0 0.0
2018-Feb-11 23:00N 39°07' E 009°09'0 0.0
2018-Feb-11 22:30N 39°07' E 009°09'0 0.1
2018-Feb-11 22:00N 39°07' E 009°09'0 0.0
2018-Feb-11 21:30N 39°07' E 009°09'0 0.0
2018-Feb-11 21:00N 39°07' E 009°09'0 0.0
2018-Feb-11 20:30N 39°07' E 009°09'0 0.0
2018-Feb-11 20:00N 39°07' E 009°09'0 0.0
2018-Feb-11 19:30N 39°07' E 009°09'0 0.1
2018-Feb-11 19:00N 39°07' E 009°09'0 0.1
2018-Feb-11 18:30N 39°07' E 009°09'0 0.1
2018-Feb-11 18:00N 39°07' E 009°09'0 0.1
2018-Feb-11 17:30N 39°07' E 009°09'0 0.0
2018-Feb-11 17:00N 39°07' E 009°09'0 0.0
2018-Feb-11 16:30N 39°07' E 009°09'0 0.1
2018-Feb-11 16:00N 39°07' E 009°09'0 0.0
2018-Feb-11 15:30N 39°07' E 009°09'0 0.0
2018-Feb-11 15:00N 39°07' E 009°09'0 0.0
2018-Feb-11 14:30N 39°07' E 009°09'0 0.1
2018-Feb-11 14:00N 39°07' E 009°09'0 0.0
2018-Feb-11 13:30N 39°07' E 009°09'0 0.0
2018-Feb-11 13:00N 39°07' E 009°09'0 0.0
2018-Feb-11 12:30N 39°07' E 009°09'0 0.1
2018-Feb-11 12:00N 39°07' E 009°09'0 0.0
2018-Feb-11 11:30N 39°07' E 009°09'0 0.0
2018-Feb-11 11:00N 39°07' E 009°09'0 0.0
2018-Feb-11 10:30N 39°07' E 009°09'0 0.0
2018-Feb-11 10:00N 39°07' E 009°09'0 0.0
2018-Feb-11 09:30N 39°07' E 009°09'0 0.0
2018-Feb-11 09:00N 39°07' E 009°09'0 0.0
2018-Feb-11 08:29N 39°07' E 009°09'0 0.0
2018-Feb-11 07:59N 39°07' E 009°09'0 0.1
2018-Feb-11 07:29N 39°07' E 009°09'0 0.1
2018-Feb-11 06:59N 39°07' E 009°09'0 0.0
2018-Feb-11 06:29N 39°07' E 009°09'0 0.1
2018-Feb-11 05:59N 39°07' E 009°09'0 0.0
2018-Feb-11 05:29N 39°07' E 009°09'0 0.0
2018-Feb-11 04:59N 39°07' E 009°09'0 0.0
2018-Feb-11 04:29N 39°07' E 009°09'0 0.0
2018-Feb-11 03:59N 39°07' E 009°09'0 0.0
2018-Feb-11 03:29N 39°07' E 009°09'0 0.0
2018-Feb-11 02:59N 39°07' E 009°09'0 0.1
2018-Feb-11 02:29N 39°07' E 009°09'0 0.0
2018-Feb-11 01:59N 39°07' E 009°09'0 0.0
2018-Feb-11 01:29N 39°07' E 009°09'0 0.0
2018-Feb-11 00:59N 39°07' E 009°09'0 0.0
2018-Feb-11 00:29N 39°07' E 009°09'0 0.0
2018-Feb-10 23:59N 39°07' E 009°09'0 0.0
2018-Feb-10 23:29N 39°07' E 009°09'0 0.0
2018-Feb-10 22:59N 39°07' E 009°09'0 0.0
2018-Feb-10 22:29N 39°07' E 009°09'0 0.0
2018-Feb-10 21:59N 39°07' E 009°09'0 0.0
2018-Feb-10 21:29N 39°07' E 009°09'0 0.0
2018-Feb-10 20:59N 39°07' E 009°09'0 0.0
2018-Feb-10 20:29N 39°07' E 009°09'0 0.0
2018-Feb-10 19:59N 39°07' E 009°09'0 0.0
2018-Feb-10 19:29N 39°07' E 009°09'0 0.1
2018-Feb-10 18:59N 39°07' E 009°09'0 0.1
2018-Feb-10 18:29N 39°07' E 009°09'0 0.0
2018-Feb-10 17:59N 39°07' E 009°09'0 0.1
2018-Feb-10 17:29N 39°07' E 009°09'0 0.0
2018-Feb-10 16:59N 39°07' E 009°09'0 0.1
2018-Feb-10 16:29N 39°07' E 009°09'0 0.0
2018-Feb-10 15:59N 39°07' E 009°09'0 0.1
2018-Feb-10 15:29N 39°07' E 009°09'0 0.1
2018-Feb-10 14:59N 39°07' E 009°09'0 0.0
2018-Feb-10 14:29N 39°07' E 009°09'0 0.0
2018-Feb-10 13:59N 39°07' E 009°09'0 0.1
2018-Feb-10 13:29N 39°07' E 009°09'0 0.1
2018-Feb-10 12:59N 39°07' E 009°09'0 0.0
2018-Feb-10 12:29N 39°07' E 009°09'0 0.0
2018-Feb-10 11:59N 39°07' E 009°09'0 0.0
2018-Feb-10 11:29N 39°07' E 009°09'0 0.0
2018-Feb-10 10:59N 39°07' E 009°09'0 0.1
2018-Feb-10 10:29N 39°07' E 009°09'0 0.1
2018-Feb-10 09:59N 39°07' E 009°09'0 0.1
2018-Feb-10 09:28N 39°07' E 009°09'0 0.1
2018-Feb-10 08:59N 39°07' E 009°09'1 1.5
2018-Feb-10 08:29N 39°08' E 009°08'2 5.0
2018-Feb-10 08:00N 39°07' E 009°11'4 8.7
2018-Feb-10 07:30N 39°04' E 009°16'5 9.3
2018-Feb-10 07:00N 39°02' E 009°21'4 8.7
2018-Feb-10 06:29N 38°60' E 009°26'180 9.7
2018-Feb-09 12:00N 38°28' E 013°13'114 3.7
2018-Feb-08 05:00N 38°12' E 015°37'14 9.0
2018-Feb-08 03:30N 37°59' E 015°34'9 8.9
2018-Feb-08 02:30N 37°51' E 015°28'9 8.9
2018-Feb-08 01:29N 37°43' E 015°23'6 9.5
2018-Feb-08 00:53N 37°37' E 015°23'  

Dump ship's entire track history